Аэропорт: Кемерово. Кемерово

ICAO: UNEE

METAR:
2020-10-19 15:00:00
UNEE 191500Z 19005MPS CAVOK 01/M06 Q1028 R23/CLRD60 NOSIG RMK QFE748
METAR:
2020-10-19 14:00:00
TAF UNEE 191400Z 1915/2015 19007G15MPS 9999 SCT030CB TEMPO 1915/2003 1500 SHSN SCT005 BKN016CB